Time;durP1;ratioP1;P1;durP2;ratioP2;P2;SDS_P1;SDS_P2;PMS_P1;PMS_P2;Temp;Humidity;BMP_temperature;BMP_pressure;BME280_temperature;BME280_humidity;BME280_pressure;Samples;Min_cycle;Max_cycle;Signal;HPM_P1;HPM_P2
2021/12/09 00:01:52;;;;;;;36.53;7.83;;;4.40;99.90;;;;;;5013522;28;20710;-73
2021/12/09 00:04:25;;;;;;;31.43;6.90;;;4.40;99.90;;;;;;5018526;28;20288;-72
2021/12/09 00:06:54;;;;;;;31.63;6.93;;;4.30;99.90;;;;;;5024813;28;20213;-72
2021/12/09 00:09:21;;;;;;;21.50;5.53;;;4.30;99.90;;;;;;5021626;28;20218;-72
2021/12/09 00:11:49;;;;;;;36.23;7.97;;;4.30;99.90;;;;;;5022327;28;20227;-72
2021/12/09 00:14:21;;;;;;;38.43;6.87;;;4.20;99.90;;;;;;5020166;28;20688;-72
2021/12/09 00:16:48;;;;;;;33.17;7.33;;;4.30;99.90;;;;;;5032120;28;20233;-72
2021/12/09 00:19:15;;;;;;;32.73;6.83;;;4.20;99.90;;;;;;5027426;28;20224;-71
2021/12/09 00:21:42;;;;;;;25.63;5.63;;;4.20;99.90;;;;;;5029001;28;20307;-72
2021/12/09 00:24:10;;;;;;;29.27;6.67;;;4.30;99.90;;;;;;5023023;28;20389;-72
2021/12/09 00:26:38;;;;;;;33.13;7.23;;;4.30;99.90;;;;;;5025254;28;20210;-72
2021/12/09 00:29:05;;;;;;;27.30;6.80;;;4.40;99.90;;;;;;5024318;28;20210;-71
2021/12/09 00:31:34;;;;;;;29.23;6.63;;;4.40;99.90;;;;;;5021948;28;20232;-72
2021/12/09 00:34:01;;;;;;;34.43;7.37;;;4.50;99.90;;;;;;5020703;28;20567;-73
2021/12/09 00:36:34;;;;;;;34.40;7.83;;;4.50;99.90;;;;;;5024946;28;20637;-71
2021/12/09 00:39:01;;;;;;;35.10;7.67;;;4.60;99.90;;;;;;5023540;28;20221;-73
2021/12/09 00:41:28;;;;;;;31.23;7.33;;;4.50;99.90;;;;;;5021471;28;20260;-71
2021/12/09 00:43:54;;;;;;;29.13;6.57;;;4.50;99.90;;;;;;5031559;28;20223;-72
2021/12/09 00:46:21;;;;;;;29.83;7.60;;;4.50;99.90;;;;;;5023099;28;20302;-72
2021/12/09 00:48:50;;;;;;;34.83;7.83;;;4.40;99.90;;;;;;5022777;28;20714;-71
2021/12/09 00:51:17;;;;;;;31.17;7.73;;;4.40;99.90;;;;;;5019757;28;21041;-71
2021/12/09 00:53:44;;;;;;;35.17;8.07;;;4.30;99.90;;;;;;5020793;28;20214;-71
2021/12/09 00:56:12;;;;;;;33.67;7.93;;;4.30;99.90;;;;;;5017563;28;20213;-72
2021/12/09 00:58:41;;;;;;;33.33;7.33;;;4.30;99.90;;;;;;5031621;28;20727;-72
2021/12/09 01:01:10;;;;;;;34.63;7.63;;;4.30;99.90;;;;;;5020207;28;20740;-72
2021/12/09 01:03:39;;;;;;;31.50;7.23;;;4.20;99.90;;;;;;5021592;28;20210;-71
2021/12/09 01:06:08;;;;;;;33.47;7.53;;;4.20;99.90;;;;;;5023699;28;20744;-70
2021/12/09 01:08:35;;;;;;;32.53;7.97;;;4.20;99.90;;;;;;5032134;28;20254;-71
2021/12/09 01:11:03;;;;;;;36.83;7.60;;;3.80;99.90;;;;;;5024689;28;20202;-71
2021/12/09 01:13:30;;;;;;;30.80;7.10;;;4.20;99.90;;;;;;5023377;28;20650;-71
2021/12/09 01:15:57;;;;;;;35.83;7.80;;;4.20;99.90;;;;;;5023982;28;20214;-71
2021/12/09 01:18:24;;;;;;;31.70;7.87;;;4.20;99.90;;;;;;5018929;28;20679;-71
2021/12/09 01:20:52;;;;;;;33.27;7.67;;;4.10;99.90;;;;;;5020758;28;20292;-72
2021/12/09 01:23:20;;;;;;;34.27;7.57;;;4.10;99.90;;;;;;5028825;28;20216;-72
2021/12/09 01:25:49;;;;;;;36.33;7.90;;;4.00;99.90;;;;;;5022168;28;20203;-72
2021/12/09 01:28:22;;;;;;;27.00;6.97;;;4.00;99.90;;;;;;5024573;28;20225;-71
2021/12/09 01:30:50;;;;;;;27.70;7.23;;;3.90;99.90;;;;;;5023928;28;20213;-71
2021/12/09 01:33:18;;;;;;;28.97;7.37;;;3.90;99.90;;;;;;5022450;28;20214;-72
2021/12/09 01:35:47;;;;;;;34.27;7.77;;;3.80;99.90;;;;;;5020992;28;20942;-71
2021/12/09 01:38:16;;;;;;;37.23;8.20;;;3.80;99.90;;;;;;5030258;28;20287;-74
2021/12/09 01:40:45;;;;;;;35.07;8.07;;;3.80;99.90;;;;;;5023282;28;20229;-71
2021/12/09 01:43:13;;;;;;;31.07;6.50;;;3.70;99.90;;;;;;5007853;28;20237;-72
2021/12/09 01:45:40;;;;;;;28.87;6.90;;;3.70;99.90;;;;;;5020758;28;20211;-71
2021/12/09 01:48:07;;;;;;;28.93;7.40;;;3.70;99.90;;;;;;5024457;28;20503;-71
2021/12/09 01:50:35;;;;;;;30.80;7.37;;;3.70;99.90;;;;;;5027400;28;20263;-73
2021/12/09 01:53:02;;;;;;;30.13;6.73;;;3.70;99.90;;;;;;5024858;28;20994;-71
2021/12/09 01:55:30;;;;;;;35.80;8.00;;;3.70;99.90;;;;;;5029772;28;20217;-71
2021/12/09 01:57:59;;;;;;;35.37;8.40;;;3.70;99.90;;;;;;5029357;28;20290;-74
2021/12/09 02:00:28;;;;;;;30.53;7.83;;;3.70;99.90;;;;;;5025903;28;20233;-70
2021/12/09 02:02:56;;;;;;;30.60;7.43;;;3.60;99.90;;;;;;5028577;28;20237;-71
2021/12/09 02:05:24;;;;;;;29.00;7.47;;;3.60;99.90;;;;;;5029616;28;20214;-71
2021/12/09 02:07:51;;;;;;;33.40;7.60;;;3.60;99.90;;;;;;5031514;28;20216;-72
2021/12/09 02:10:19;;;;;;;30.00;7.47;;;3.60;99.90;;;;;;5025382;28;20634;-72
2021/12/09 02:12:48;;;;;;;34.73;8.00;;;3.60;99.90;;;;;;5037127;28;20225;-72
2021/12/09 02:15:17;;;;;;;39.97;7.83;;;3.50;99.90;;;;;;5034957;28;20213;-71
2021/12/09 02:17:44;;;;;;;36.20;7.33;;;3.50;99.90;;;;;;5033968;28;20235;-73
2021/12/09 02:20:11;;;;;;;36.60;7.43;;;3.40;99.90;;;;;;5025867;28;20214;-71
2021/12/09 02:22:45;;;;;;;34.93;7.53;;;3.40;99.90;;;;;;5031865;28;20616;-72
2021/12/09 02:25:12;;;;;;;31.10;7.23;;;3.40;99.90;;;;;;5025689;28;20237;-73
2021/12/09 02:27:39;;;;;;;41.13;7.57;;;3.40;99.90;;;;;;5026730;28;20552;-71
2021/12/09 02:30:07;;;;;;;38.20;8.43;;;3.40;99.90;;;;;;5023869;28;20300;-73
2021/12/09 02:32:34;;;;;;;31.83;7.10;;;3.30;99.90;;;;;;5026701;28;20660;-73
2021/12/09 02:35:01;;;;;;;34.40;7.43;;;3.30;99.90;;;;;;5011445;28;20217;-71
2021/12/09 02:37:28;;;;;;;28.67;6.60;;;3.30;99.90;;;;;;5027674;28;20205;-71
2021/12/09 02:39:57;;;;;;;30.17;7.00;;;3.30;99.90;;;;;;5023919;28;20233;-71
2021/12/09 02:42:25;;;;;;;26.37;6.93;;;3.20;99.90;;;;;;5029681;28;20356;-71
2021/12/09 02:44:52;;;;;;;33.93;7.33;;;3.20;99.90;;;;;;5014167;28;20328;-71
2021/12/09 02:47:19;;;;;;;29.77;6.33;;;3.20;99.90;;;;;;5019522;28;20214;-73
2021/12/09 02:49:46;;;;;;;36.20;8.27;;;3.20;99.90;;;;;;5024572;28;20286;-72
2021/12/09 02:52:13;;;;;;;29.20;7.00;;;3.10;99.90;;;;;;5024493;28;20630;-73
2021/12/09 02:54:40;;;;;;;31.00;7.20;;;3.10;99.90;;;;;;5021506;28;20232;-70
2021/12/09 02:57:09;;;;;;;34.23;7.83;;;3.10;99.90;;;;;;5028742;28;20264;-73
2021/12/09 02:59:36;;;;;;;32.67;7.87;;;3.10;99.90;;;;;;5024109;28;20218;-70
2021/12/09 03:02:06;;;;;;;37.83;8.50;;;3.00;99.90;;;;;;5025151;28;20233;-72
2021/12/09 03:04:39;;;;;;;35.53;7.77;;;3.00;99.90;;;;;;5013784;28;20214;-71
2021/12/09 03:07:08;;;;;;;24.17;7.07;;;2.90;99.90;;;;;;5024989;28;20603;-71
2021/12/09 03:09:35;;;;;;;32.70;7.50;;;3.00;99.90;;;;;;5024361;28;20237;-72
2021/12/09 03:12:05;;;;;;;41.40;8.27;;;3.00;99.90;;;;;;5031308;28;20312;-70
2021/12/09 03:14:33;;;;;;;36.53;7.80;;;2.90;99.90;;;;;;5024603;28;20271;-73
2021/12/09 03:17:00;;;;;;;31.07;7.90;;;2.90;99.90;;;;;;5021811;28;20517;-70
2021/12/09 03:19:27;;;;;;;31.53;7.70;;;2.90;99.90;;;;;;5023935;28;20700;-71
2021/12/09 03:21:54;;;;;;;32.03;7.80;;;2.90;99.90;;;;;;5016120;28;20243;-72
2021/12/09 03:24:21;;;;;;;36.73;8.57;;;2.90;99.90;;;;;;5025902;28;20213;-71
2021/12/09 03:26:51;;;;;;;34.97;8.17;;;2.80;99.90;;;;;;5022923;28;20228;-72
2021/12/09 03:29:19;;;;;;;34.63;8.30;;;2.80;99.90;;;;;;5024859;28;20232;-71
2021/12/09 03:31:50;;;;;;;37.77;8.60;;;2.70;99.90;;;;;;5023982;28;20248;-72
2021/12/09 03:34:20;;;;;;;28.63;7.77;;;2.70;99.90;;;;;;5027181;28;20214;-71
2021/12/09 03:36:48;;;;;;;39.17;9.03;;;2.70;99.90;;;;;;5026344;28;20202;-72
2021/12/09 03:39:18;;;;;;;35.97;7.90;;;2.60;99.90;;;;;;5024374;28;20292;-71
2021/12/09 03:41:47;;;;;;;34.00;7.60;;;2.60;99.90;;;;;;5023767;28;20628;-72
2021/12/09 03:44:15;;;;;;;35.23;8.03;;;2.60;99.90;;;;;;5034907;28;20533;-71
2021/12/09 03:46:42;;;;;;;35.27;8.10;;;2.60;99.90;;;;;;5024436;28;20683;-71
2021/12/09 03:49:11;;;;;;;42.70;9.47;;;2.60;99.90;;;;;;5022189;28;20216;-74
2021/12/09 03:51:38;;;;;;;34.50;8.53;;;2.60;99.90;;;;;;5023837;28;20243;-70
2021/12/09 03:54:07;;;;;;;36.93;8.27;;;2.50;99.90;;;;;;5025054;28;20216;-71
2021/12/09 03:56:36;;;;;;;34.27;8.63;;;2.50;99.90;;;;;;5024870;28;20217;-72
2021/12/09 03:59:03;;;;;;;35.60;8.53;;;2.50;99.90;;;;;;5022973;28;20679;-71
2021/12/09 04:01:30;;;;;;;31.17;8.97;;;2.50;99.90;;;;;;5018452;28;20230;-71
2021/12/09 04:04:00;;;;;;;32.07;8.00;;;2.50;99.90;;;;;;5022179;28;20210;-73
2021/12/09 04:06:29;;;;;;;33.90;8.57;;;2.50;99.90;;;;;;5028424;28;20213;-72
2021/12/09 04:08:56;;;;;;;38.43;8.30;;;2.40;99.90;;;;;;5023050;28;20690;-73
2021/12/09 04:11:23;;;;;;;31.90;8.03;;;2.40;99.90;;;;;;5017083;28;20726;-72
2021/12/09 04:13:50;;;;;;;33.50;7.83;;;2.40;99.90;;;;;;5020461;28;20206;-73
2021/12/09 04:16:17;;;;;;;39.27;8.37;;;2.40;99.90;;;;;;5020010;28;20206;-74
2021/12/09 04:18:45;;;;;;;40.83;9.10;;;2.30;99.90;;;;;;5019226;28;20208;-74
2021/12/09 04:21:13;;;;;;;34.47;8.30;;;2.30;99.90;;;;;;5025680;28;20321;-75
2021/12/09 04:23:41;;;;;;;29.17;7.33;;;2.30;99.90;;;;;;5023338;28;20285;-74
2021/12/09 04:26:09;;;;;;;35.50;9.83;;;2.20;99.90;;;;;;5024648;28;20205;-75
2021/12/09 04:28:37;;;;;;;28.93;7.60;;;2.20;99.90;;;;;;5021217;28;20205;-73
2021/12/09 04:31:04;;;;;;;34.73;8.37;;;2.20;99.90;;;;;;5023271;28;20292;-72
2021/12/09 04:33:31;;;;;;;31.97;7.90;;;2.20;99.90;;;;;;5020625;28;21105;-72
2021/12/09 04:35:59;;;;;;;36.40;8.33;;;2.20;99.90;;;;;;5030196;28;20297;-72
2021/12/09 04:38:27;;;;;;;28.37;7.00;;;2.20;99.90;;;;;;5027558;28;20228;-73
2021/12/09 04:40:55;;;;;;;36.00;8.37;;;2.10;99.90;;;;;;5027910;28;20205;-73
2021/12/09 04:43:22;;;;;;;27.80;7.57;;;2.20;99.90;;;;;;5023218;28;20245;-74
2021/12/09 04:45:49;;;;;;;32.03;7.90;;;2.10;99.90;;;;;;5022652;28;20213;-74
2021/12/09 04:48:16;;;;;;;31.90;7.70;;;2.10;99.90;;;;;;5024770;28;20210;-72
2021/12/09 04:50:43;;;;;;;28.13;7.70;;;2.20;99.90;;;;;;5021737;28;20223;-73
2021/12/09 04:53:11;;;;;;;33.70;7.50;;;2.10;99.90;;;;;;5019995;28;20241;-73
2021/12/09 04:55:39;;;;;;;26.83;7.73;;;2.10;99.90;;;;;;5020707;28;20552;-73
2021/12/09 04:58:07;;;;;;;27.97;7.30;;;2.10;99.90;;;;;;5023162;28;20209;-72
2021/12/09 05:00:37;;;;;;;30.83;8.37;;;2.10;99.90;;;;;;5024848;28;20472;-71
2021/12/09 05:03:08;;;;;;;28.70;7.40;;;2.10;99.90;;;;;;5004944;28;20351;-72
2021/12/09 05:05:38;;;;;;;31.50;7.83;;;2.10;99.90;;;;;;5021091;28;20210;-72
2021/12/09 05:08:07;;;;;;;34.23;9.10;;;2.10;99.90;;;;;;5036315;28;20214;-73
2021/12/09 05:10:48;;;;;;;33.13;7.73;;;2.10;99.90;;;;;;5023826;28;20214;-72
2021/12/09 05:13:17;;;;;;;35.27;8.63;;;2.00;99.90;;;;;;5007721;28;20236;-73
2021/12/09 05:15:44;;;;;;;35.13;8.83;;;2.00;99.90;;;;;;5019199;28;20240;-73
2021/12/09 05:18:11;;;;;;;31.93;7.93;;;2.00;99.90;;;;;;5027103;28;20220;-73
2021/12/09 05:20:38;;;;;;;37.53;8.50;;;2.00;99.90;;;;;;5027518;28;20217;-73
2021/12/09 05:23:05;;;;;;;28.73;7.37;;;2.00;99.90;;;;;;5028271;28;20957;-73
2021/12/09 05:25:32;;;;;;;32.33;8.37;;;2.00;99.90;;;;;;5026731;28;20216;-71
2021/12/09 05:27:59;;;;;;;41.03;9.20;;;2.00;99.90;;;;;;5026070;28;20587;-72
2021/12/09 05:30:39;;;;;;;36.50;8.57;;;2.00;99.90;;;;;;5026260;28;20217;-71
2021/12/09 05:33:05;;;;;;;34.43;8.47;;;2.00;99.90;;;;;;5024805;28;20222;-71
2021/12/09 05:35:32;;;;;;;32.40;8.57;;;2.00;99.90;;;;;;5020658;28;20666;-71
2021/12/09 05:37:59;;;;;;;30.80;8.27;;;2.00;99.90;;;;;;5025733;28;20210;-73
2021/12/09 05:40:26;;;;;;;28.93;8.10;;;2.00;99.90;;;;;;5026464;28;20233;-71
2021/12/09 05:42:53;;;;;;;26.53;7.67;;;2.00;99.90;;;;;;5026897;28;20710;-73
2021/12/09 05:45:20;;;;;;;30.67;8.60;;;2.10;99.90;;;;;;5030333;28;20224;-71
2021/12/09 05:47:48;;;;;;;33.90;8.47;;;2.10;99.90;;;;;;5023469;28;20210;-72
2021/12/09 05:50:15;;;;;;;32.67;7.80;;;2.10;99.90;;;;;;5012210;28;20218;-71
2021/12/09 05:52:42;;;;;;;32.77;8.40;;;2.10;99.90;;;;;;5027829;28;20698;-71
2021/12/09 05:55:10;;;;;;;36.33;8.63;;;2.10;99.90;;;;;;5024184;28;20266;-72
2021/12/09 05:57:37;;;;;;;28.50;7.13;;;2.10;99.90;;;;;;5023822;28;20225;-71
2021/12/09 06:00:08;;;;;;;32.37;8.20;;;2.00;99.90;;;;;;5024607;28;20222;-71
2021/12/09 06:02:40;;;;;;;31.37;8.63;;;2.00;99.90;;;;;;5027359;28;20311;-71
2021/12/09 06:05:09;;;;;;;29.63;8.10;;;2.00;99.90;;;;;;5017995;28;20221;-70
2021/12/09 06:07:36;;;;;;;40.30;9.43;;;2.00;99.90;;;;;;5030246;28;20209;-72
2021/12/09 06:10:04;;;;;;;27.93;8.20;;;2.00;99.90;;;;;;5025253;28;20210;-71
2021/12/09 06:12:31;;;;;;;30.80;8.20;;;2.00;99.90;;;;;;5036056;28;20220;-72
2021/12/09 06:14:58;;;;;;;36.73;8.37;;;2.00;99.90;;;;;;5033618;28;20241;-73
2021/12/09 06:17:25;;;;;;;30.17;7.43;;;2.00;99.90;;;;;;5024815;28;20235;-70
2021/12/09 06:19:52;;;;;;;31.53;7.67;;;1.90;99.90;;;;;;5026575;28;20210;-71
2021/12/09 06:22:20;;;;;;;34.07;8.77;;;1.90;99.90;;;;;;5031516;28;20221;-70
2021/12/09 06:24:47;;;;;;;38.23;8.70;;;1.90;99.90;;;;;;5025756;28;20217;-72
2021/12/09 06:27:14;;;;;;;30.77;8.33;;;1.90;99.90;;;;;;5026548;28;20728;-71
2021/12/09 06:29:41;;;;;;;29.53;7.83;;;2.00;99.90;;;;;;5022725;28;20552;-71
2021/12/09 06:32:11;;;;;;;30.80;8.13;;;2.00;99.90;;;;;;5032771;28;20632;-72
2021/12/09 06:34:38;;;;;;;29.93;8.17;;;2.00;99.90;;;;;;5035436;28;20219;-72
2021/12/09 06:37:05;;;;;;;26.13;7.47;;;2.00;99.90;;;;;;5023326;28;20214;-72
2021/12/09 06:39:33;;;;;;;30.30;8.53;;;1.90;99.90;;;;;;5024994;28;20221;-71
2021/12/09 06:42:00;;;;;;;36.37;8.90;;;1.90;99.90;;;;;;5025961;28;20227;-73
2021/12/09 06:44:27;;;;;;;21.80;6.47;;;1.90;99.90;;;;;;5018258;28;20233;-72
2021/12/09 06:46:56;;;;;;;35.70;8.33;;;1.90;99.90;;;;;;5029712;28;20447;-72
2021/12/09 06:49:23;;;;;;;27.97;7.77;;;1.90;99.90;;;;;;5024682;28;20210;-73
2021/12/09 06:51:51;;;;;;;39.07;9.40;;;1.90;99.90;;;;;;5025747;28;20237;-73
2021/12/09 06:54:18;;;;;;;26.70;7.87;;;1.90;99.90;;;;;;5025764;28;20561;-70
2021/12/09 06:56:46;;;;;;;36.27;8.87;;;1.90;99.90;;;;;;5023634;28;20209;-71
2021/12/09 06:59:13;;;;;;;33.27;8.63;;;1.90;99.90;;;;;;5025981;28;20218;-71
2021/12/09 07:01:40;;;;;;;34.57;9.00;;;1.90;99.90;;;;;;5009123;28;20275;-72
2021/12/09 07:04:08;;;;;;;36.07;9.20;;;1.90;99.90;;;;;;5026686;28;20222;-71
2021/12/09 07:06:35;;;;;;;35.77;9.37;;;1.90;99.90;;;;;;5023353;28;20301;-72
2021/12/09 07:09:04;;;;;;;25.17;6.27;;;1.90;99.90;;;;;;5024905;28;20221;-71
2021/12/09 07:11:32;;;;;;;41.60;10.77;;;1.90;99.90;;;;;;5032558;28;20233;-72
2021/12/09 07:14:01;;;;;;;32.03;9.43;;;1.90;99.90;;;;;;5029819;28;20524;-71
2021/12/09 07:16:29;;;;;;;34.17;10.77;;;2.00;99.90;;;;;;5026937;28;20213;-71
2021/12/09 07:18:56;;;;;;;31.17;9.07;;;2.00;99.90;;;;;;5023761;28;20285;-73
2021/12/09 07:21:23;;;;;;;31.13;9.83;;;2.00;99.90;;;;;;5030582;28;20394;-73
2021/12/09 07:23:50;;;;;;;35.17;10.53;;;2.00;99.90;;;;;;5034171;28;20300;-72
2021/12/09 07:26:17;;;;;;;34.60;9.63;;;2.00;99.90;;;;;;5018314;28;20221;-74
2021/12/09 07:28:44;;;;;;;27.97;8.43;;;2.00;99.90;;;;;;5019204;28;20210;-72
2021/12/09 07:31:14;;;;;;;34.53;9.07;;;2.00;99.90;;;;;;5024310;28;20259;-74
2021/12/09 07:33:41;;;;;;;38.43;10.00;;;2.00;99.90;;;;;;5027064;28;20205;-73
2021/12/09 07:36:07;;;;;;;34.47;10.27;;;2.10;99.90;;;;;;5024871;28;20214;-75
2021/12/09 07:38:34;;;;;;;34.30;10.13;;;2.10;99.90;;;;;;5024235;28;20210;-72
2021/12/09 07:41:01;;;;;;;30.00;9.50;;;2.10;99.90;;;;;;5025888;28;20210;-73
2021/12/09 07:43:28;;;;;;;31.13;9.57;;;2.10;99.90;;;;;;5028424;28;20331;-72
2021/12/09 07:45:55;;;;;;;35.20;10.53;;;2.10;99.90;;;;;;5026242;28;20210;-72
2021/12/09 07:48:23;;;;;;;34.63;11.33;;;2.10;99.90;;;;;;5024466;28;20213;-73
2021/12/09 07:50:50;;;;;;;42.80;11.67;;;2.20;99.90;;;;;;5022781;28;20218;-73
2021/12/09 07:53:18;;;;;;;36.23;11.43;;;2.20;99.90;;;;;;5026818;28;20509;-72
2021/12/09 07:55:45;;;;;;;34.80;12.07;;;2.20;99.90;;;;;;5019270;28;20237;-72
2021/12/09 07:58:12;;;;;;;40.10;13.87;;;2.30;99.90;;;;;;5024821;28;20312;-75
2021/12/09 08:00:39;;;;;;;41.33;12.90;;;2.40;99.90;;;;;;5024841;28;20209;-73
2021/12/09 08:03:06;;;;;;;38.40;12.60;;;2.40;99.90;;;;;;5024540;28;21294;-73
2021/12/09 08:05:40;;;;;;;40.00;14.47;;;2.50;99.90;;;;;;5025079;28;20209;-72
2021/12/09 08:08:08;;;;;;;40.60;14.13;;;2.50;99.90;;;;;;5008506;28;20214;-72
2021/12/09 08:10:35;;;;;;;36.93;13.30;;;2.60;99.90;;;;;;5019075;28;20297;-73
2021/12/09 08:13:03;;;;;;;35.20;13.80;;;2.70;99.90;;;;;;5015611;28;20225;-73
2021/12/09 08:15:33;;;;;;;39.03;15.03;;;2.80;99.90;;;;;;5025838;28;20278;-72
2021/12/09 08:18:15;;;;;;;38.10;13.67;;;2.90;99.90;;;;;;5028149;28;20235;-73
2021/12/09 08:20:43;;;;;;;34.53;11.30;;;3.00;99.90;;;;;;5026385;28;20292;-73
2021/12/09 08:23:10;;;;;;;38.73;12.67;;;3.10;99.90;;;;;;5017587;28;20234;-73
2021/12/09 08:25:37;;;;;;;34.53;13.63;;;3.10;99.90;;;;;;5022773;28;20225;-74
2021/12/09 08:28:05;;;;;;;37.73;14.10;;;3.20;99.90;;;;;;5024403;28;20559;-71
2021/12/09 08:30:32;;;;;;;47.00;16.37;;;3.30;99.90;;;;;;5024526;28;20218;-71
2021/12/09 08:32:59;;;;;;;39.70;14.33;;;3.30;99.90;;;;;;5025363;28;20233;-71
2021/12/09 08:35:27;;;;;;;41.77;15.83;;;3.40;99.90;;;;;;5025804;28;20628;-71
2021/12/09 08:37:58;;;;;;;39.67;15.53;;;3.40;99.90;;;;;;5028782;28;20210;-70
2021/12/09 08:40:27;;;;;;;37.97;15.43;;;3.50;99.90;;;;;;5021711;28;20213;-71
2021/12/09 08:42:54;;;;;;;42.53;16.70;;;3.50;99.90;;;;;;5022769;28;20229;-72
2021/12/09 08:45:22;;;;;;;39.93;14.20;;;3.60;99.90;;;;;;5020899;28;20217;-73
2021/12/09 08:47:49;;;;;;;32.77;14.30;;;3.70;99.90;;;;;;5025584;28;20210;-74
2021/12/09 08:50:19;;;;;;;35.50;15.17;;;3.70;99.90;;;;;;5026235;28;20221;-74
2021/12/09 08:52:46;;;;;;;38.43;15.43;;;3.80;99.90;;;;;;5025590;28;20257;-71
2021/12/09 08:55:17;;;;;;;41.10;14.60;;;3.90;99.90;;;;;;5026891;28;20588;-72
2021/12/09 08:57:44;;;;;;;36.27;14.90;;;3.90;99.90;;;;;;5028005;28;20210;-72
2021/12/09 09:00:14;;;;;;;31.60;11.20;;;4.00;99.90;;;;;;5030224;28;20220;-73
2021/12/09 09:02:43;;;;;;;33.70;11.87;;;4.10;99.90;;;;;;5028419;28;20235;-69
2021/12/09 09:05:13;;;;;;;35.57;12.43;;;4.20;99.90;;;;;;5010792;28;20577;-70
2021/12/09 09:07:40;;;;;;;37.67;11.47;;;4.30;99.90;;;;;;5028187;28;20214;-70
2021/12/09 09:10:09;;;;;;;33.10;10.80;;;4.30;99.90;;;;;;5025692;28;20735;-69
2021/12/09 09:12:37;;;;;;;30.37;10.97;;;4.40;99.90;;;;;;5026693;28;20323;-69
2021/12/09 09:15:06;;;;;;;32.70;9.60;;;4.50;99.90;;;;;;5025146;28;20245;-70
2021/12/09 09:17:34;;;;;;;34.43;10.40;;;4.60;99.90;;;;;;5016437;28;20236;-70
2021/12/09 09:20:00;;;;;;;33.80;9.57;;;4.70;99.90;;;;;;5031948;28;20676;-70
2021/12/09 09:22:27;;;;;;;30.57;9.20;;;4.90;99.90;;;;;;5034346;28;20248;-70
2021/12/09 09:24:54;;;;;;;31.13;9.63;;;5.00;99.90;;;;;;5032735;28;20222;-69
2021/12/09 09:27:21;;;;;;;22.57;7.00;;;5.10;99.90;;;;;;5039204;28;20218;-69
2021/12/09 09:29:50;;;;;;;28.07;8.20;;;5.20;99.90;;;;;;5031704;28;20210;-70
2021/12/09 09:32:16;;;;;;;22.13;6.50;;;5.30;99.90;;;;;;5021922;28;20231;-70
2021/12/09 09:34:43;;;;;;;32.27;8.07;;;5.40;99.90;;;;;;5027632;28;20246;-70
2021/12/09 09:37:11;;;;;;;30.30;6.87;;;5.50;99.90;;;;;;5024470;28;20215;-70
2021/12/09 09:39:42;;;;;;;28.37;7.17;;;5.60;99.90;;;;;;5028222;28;20221;-70
2021/12/09 09:42:32;;;;;;;26.47;7.47;;;5.70;99.90;;;;;;5008324;28;20312;-71
2021/12/09 09:45:00;;;;;;;24.23;7.03;;;5.80;99.90;;;;;;5026119;28;20226;-70
2021/12/09 09:47:29;;;;;;;27.20;7.17;;;5.90;99.90;;;;;;5021951;28;20216;-70
2021/12/09 09:49:57;;;;;;;23.53;6.20;;;6.00;99.90;;;;;;5024938;28;20486;-70
2021/12/09 09:52:24;;;;;;;31.70;7.13;;;6.10;99.90;;;;;;5029167;28;20319;-70
2021/12/09 09:54:54;;;;;;;27.50;6.80;;;6.20;99.90;;;;;;5022132;28;20239;-70
2021/12/09 09:57:21;;;;;;;22.03;5.77;;;6.20;99.90;;;;;;5029133;28;20293;-70
2021/12/09 09:59:49;;;;;;;30.73;7.80;;;6.30;99.90;;;;;;5025910;28;20221;-70
2021/12/09 10:02:18;;;;;;;24.47;6.90;;;6.30;99.90;;;;;;5028361;28;20679;-70
2021/12/09 10:04:48;;;;;;;28.47;7.20;;;6.40;99.90;;;;;;5030358;28;20237;-70
2021/12/09 10:07:20;;;;;;;28.00;7.20;;;6.40;99.90;;;;;;5035490;28;20417;-70
2021/12/09 10:09:49;;;;;;;28.73;6.67;;;6.50;99.90;;;;;;5029929;28;20556;-70
2021/12/09 10:12:16;;;;;;;23.00;6.53;;;6.60;99.90;;;;;;5036605;28;20226;-71
2021/12/09 10:14:46;;;;;;;24.03;6.30;;;6.70;99.90;;;;;;5018202;28;20367;-71
2021/12/09 10:17:15;;;;;;;25.27;7.07;;;6.70;99.90;;;;;;5027024;28;20231;-70
2021/12/09 10:19:51;;;;;;;22.47;6.50;;;6.70;99.90;;;;;;5026724;28;20528;-69
2021/12/09 10:22:21;;;;;;;20.27;5.47;;;6.80;99.90;;;;;;5025359;28;20235;-70
2021/12/09 10:24:51;;;;;;;21.40;5.60;;;6.80;99.90;;;;;;5027945;28;20683;-70
2021/12/09 10:27:24;;;;;;;31.13;8.03;;;6.80;99.90;;;;;;5032505;28;20212;-70
2021/12/09 10:29:56;;;;;;;28.43;6.33;;;6.90;99.90;;;;;;5027880;28;20209;-70
2021/12/09 10:32:28;;;;;;;24.23;7.30;;;6.90;99.90;;;;;;4998953;28;20238;-70
2021/12/09 10:35:04;;;;;;;26.13;7.30;;;6.90;99.90;;;;;;5027744;28;20528;-71
2021/12/09 10:37:32;;;;;;;23.77;6.70;;;6.90;99.90;;;;;;5028322;28;20215;-71
2021/12/09 10:40:03;;;;;;;23.67;6.63;;;7.00;99.90;;;;;;5026097;28;20690;-70
2021/12/09 10:42:32;;;;;;;21.10;5.90;;;7.00;99.90;;;;;;5021070;28;20802;-70
2021/12/09 10:45:02;;;;;;;28.00;8.30;;;7.10;99.90;;;;;;5024422;28;20587;-70
2021/12/09 10:47:48;;;;;;;21.97;6.23;;;7.10;99.90;;;;;;5025943;28;20209;-70
2021/12/09 10:50:26;;;;;;;25.97;7.57;;;7.10;99.90;;;;;;5029901;28;20311;-69
2021/12/09 10:52:57;;;;;;;24.93;7.03;;;7.20;99.90;;;;;;5025732;28;20234;-70
2021/12/09 10:55:30;;;;;;;27.30;7.07;;;7.20;99.90;;;;;;5026229;28;20210;-70
2021/12/09 10:58:03;;;;;;;23.47;6.53;;;7.20;99.90;;;;;;5024182;28;20218;-70
2021/12/09 11:00:35;;;;;;;22.67;6.83;;;7.30;99.90;;;;;;5029103;28;20218;-70
2021/12/09 11:03:09;;;;;;;25.70;7.10;;;7.30;99.90;;;;;;5026755;28;20223;-70
2021/12/09 11:05:40;;;;;;;28.60;7.13;;;7.30;99.90;;;;;;5005581;28;20249;-70
2021/12/09 11:08:17;;;;;;;26.60;6.93;;;7.40;99.90;;;;;;5024373;28;20212;-70
2021/12/09 11:10:48;;;;;;;23.13;5.70;;;7.40;99.90;;;;;;5034239;28;20208;-70
2021/12/09 11:13:17;;;;;;;30.87;7.80;;;7.40;99.90;;;;;;5027197;28;20226;-69
2021/12/09 11:15:47;;;;;;;28.63;7.43;;;7.30;99.90;;;;;;5024651;28;20692;-70
2021/12/09 11:18:30;;;;;;;18.33;5.13;;;7.30;99.90;;;;;;5027165;28;20667;-69
2021/12/09 11:20:58;;;;;;;23.53;6.13;;;7.30;99.90;;;;;;5022564;28;20201;-71
2021/12/09 11:23:29;;;;;;;20.17;5.73;;;7.30;99.90;;;;;;5019250;28;20233;-69
2021/12/09 11:25:59;;;;;;;27.27;6.70;;;7.30;99.90;;;;;;5027257;28;20316;-71
2021/12/09 11:28:27;;;;;;;26.03;6.87;;;7.40;99.90;;;;;;5027162;28;20272;-71
2021/12/09 11:31:08;;;;;;;26.53;6.87;;;7.40;99.90;;;;;;5024943;28;20206;-69
2021/12/09 11:33:40;;;;;;;25.27;5.77;;;7.40;99.90;;;;;;5024069;28;20210;-70
2021/12/09 11:36:15;;;;;;;25.37;6.33;;;7.40;99.90;;;;;;5000199;28;20206;-70
2021/12/09 11:39:09;;;;;;;27.73;6.13;;;7.30;99.90;;;;;;5019902;28;20680;-69
2021/12/09 11:41:40;;;;;;;26.43;6.70;;;7.30;99.90;;;;;;5035509;28;20328;-70
2021/12/09 11:44:09;;;;;;;25.27;6.17;;;7.40;99.90;;;;;;5023427;28;20237;-70
2021/12/09 11:46:37;;;;;;;19.97;5.87;;;7.40;99.90;;;;;;5025388;28;20206;-70
2021/12/09 11:49:05;;;;;;;29.40;6.87;;;7.40;99.90;;;;;;5027551;28;20217;-70
2021/12/09 11:51:34;;;;;;;24.10;6.77;;;7.40;99.90;;;;;;5028384;28;20272;-70
2021/12/09 11:54:02;;;;;;;21.20;5.97;;;7.50;99.90;;;;;;5019109;28;20501;-69
2021/12/09 11:56:38;;;;;;;23.07;6.43;;;7.50;99.90;;;;;;5021189;28;20242;-70
2021/12/09 12:06:33;;;;;;;27.60;7.00;;;7.40;99.90;;;;;;5016157;28;20210;-70
2021/12/09 12:11:34;;;;;;;22.93;6.23;;;7.20;99.90;;;;;;5034361;28;20570;-69
2021/12/09 12:14:07;;;;;;;26.97;6.80;;;7.20;99.90;;;;;;5023060;28;20278;-70
2021/12/09 12:16:56;;;;;;;24.33;7.27;;;7.20;99.90;;;;;;5021315;28;20319;-71
2021/12/09 12:20:01;;;;;;;25.77;7.07;;;7.20;99.90;;;;;;5003226;28;20599;-70
2021/12/09 12:22:46;;;;;;;31.63;7.17;;;7.20;99.90;;;;;;5018581;28;20232;-71
2021/12/09 12:26:25;;;;;;;24.10;6.77;;;7.20;99.90;;;;;;5017632;28;20234;-71
2021/12/09 12:29:27;;;;;;;26.17;7.33;;;7.20;99.90;;;;;;5025778;28;20233;-71
2021/12/09 12:35:04;;;;;;;28.47;7.30;;;7.10;99.90;;;;;;5026788;28;20418;-70
2021/12/09 12:37:52;;;;;;;30.20;7.43;;;7.10;99.90;;;;;;5027424;28;20222;-72
2021/12/09 12:40:21;;;;;;;22.80;6.10;;;7.10;99.90;;;;;;5015248;28;20250;-69
2021/12/09 12:42:55;;;;;;;22.47;6.83;;;7.10;99.90;;;;;;5023042;28;20307;-69
2021/12/09 12:49:03;;;;;;;21.93;6.20;;;7.00;99.90;;;;;;4995054;28;20218;-70
2021/12/09 12:51:34;;;;;;;24.10;6.37;;;6.90;99.90;;;;;;5023922;28;20238;-70
2021/12/09 12:54:06;;;;;;;18.97;5.50;;;6.90;99.90;;;;;;5025832;28;20209;-69
2021/12/09 12:56:41;;;;;;;24.33;6.27;;;6.90;99.90;;;;;;5023507;28;20216;-70
2021/12/09 12:59:21;;;;;;;21.93;5.40;;;6.90;99.90;;;;;;5027108;28;20198;-70
2021/12/09 13:02:14;;;;;;;24.70;6.43;;;6.80;99.90;;;;;;5024157;28;20233;-70
2021/12/09 13:04:51;;;;;;;22.97;6.20;;;6.80;99.90;;;;;;5026178;28;20654;-70
2021/12/09 13:07:29;;;;;;;19.23;5.23;;;6.80;99.90;;;;;;5023206;28;20220;-69
2021/12/09 13:10:24;;;;;;;22.90;6.50;;;6.80;99.90;;;;;;5025637;28;20259;-70
2021/12/09 13:13:03;;;;;;;21.77;5.90;;;6.80;99.90;;;;;;5024939;28;20221;-70
2021/12/09 13:15:42;;;;;;;22.07;5.60;;;6.80;99.90;;;;;;5025292;28;20268;-70